Time;durP1;ratioP1;P1;durP2;ratioP2;P2;SDS_P1;SDS_P2;PMS_P1;PMS_P2;Temp;Humidity;BMP_temperature;BMP_pressure;BME280_temperature;BME280_humidity;BME280_pressure;Samples;Min_cycle;Max_cycle;Signal;HPM_P1;HPM_P2
2024/01/02 00:00:14;;;;;;;2.80;0.95;;;10.30;99.90;;;;;;5040037;28;20181;-71
2024/01/02 00:02:40;;;;;;;2.90;0.98;;;10.30;99.90;;;;;;5043921;28;20173;-68
2024/01/02 00:05:07;;;;;;;1.92;0.85;;;10.30;99.90;;;;;;5040444;28;20177;-72
2024/01/02 00:07:32;;;;;;;1.90;0.80;;;10.30;99.90;;;;;;5059008;28;20192;-68
2024/01/02 00:09:58;;;;;;;1.90;0.80;;;10.30;99.90;;;;;;5042291;28;20177;-72
2024/01/02 00:12:26;;;;;;;3.13;0.85;;;10.30;99.90;;;;;;5044402;28;20183;-67
2024/01/02 00:14:52;;;;;;;2.13;0.80;;;10.30;99.90;;;;;;5057484;28;20280;-67
2024/01/02 00:17:18;;;;;;;2.03;0.80;;;10.30;99.90;;;;;;5056001;28;20291;-68
2024/01/02 00:19:43;;;;;;;1.88;0.70;;;10.30;99.90;;;;;;5040204;28;20221;-71
2024/01/02 00:22:09;;;;;;;2.03;0.75;;;10.40;99.90;;;;;;5056537;28;20266;-70
2024/01/02 00:24:35;;;;;;;3.10;0.82;;;10.40;99.90;;;;;;5054035;28;20171;-64
2024/01/02 00:27:02;;;;;;;2.00;0.60;;;10.40;99.90;;;;;;5039009;28;20173;-71
2024/01/02 00:29:28;;;;;;;1.75;0.65;;;10.40;99.90;;;;;;5040253;28;20181;-72
2024/01/02 00:31:53;;;;;;;1.48;0.70;;;10.40;99.90;;;;;;5042254;28;20213;-71
2024/01/02 00:34:21;;;;;;;2.75;0.70;;;10.40;99.90;;;;;;5045527;28;20203;-69
2024/01/02 00:36:47;;;;;;;1.90;0.60;;;10.50;99.90;;;;;;5039943;28;20239;-71
2024/01/02 00:39:13;;;;;;;2.47;0.52;;;10.50;99.90;;;;;;5050239;28;20594;-68
2024/01/02 00:41:39;;;;;;;1.35;0.50;;;10.50;99.90;;;;;;5052896;28;20180;-69
2024/01/02 00:44:07;;;;;;;0.95;0.43;;;10.50;99.90;;;;;;5056011;28;20570;-68
2024/01/02 00:46:32;;;;;;;0.95;0.50;;;10.50;99.90;;;;;;5037068;28;20191;-72
2024/01/02 00:48:58;;;;;;;2.05;0.60;;;10.50;99.90;;;;;;5038512;28;20284;-65
2024/01/02 00:51:23;;;;;;;0.63;0.40;;;10.60;99.90;;;;;;5057793;28;20238;-69
2024/01/02 00:53:51;;;;;;;1.75;0.50;;;10.60;99.90;;;;;;5054042;28;20189;-68
2024/01/02 00:56:19;;;;;;;0.60;0.40;;;10.60;99.90;;;;;;5053163;28;20475;-71
2024/01/02 00:58:44;;;;;;;0.55;0.32;;;10.60;99.90;;;;;;5038308;28;20170;-66
2024/01/02 01:01:10;;;;;;;0.95;0.40;;;10.60;99.90;;;;;;5037676;28;20195;-67
2024/01/02 01:03:37;;;;;;;2.00;0.50;;;10.70;99.90;;;;;;5057035;28;20296;-70
2024/01/02 01:06:03;;;;;;;0.63;0.40;;;10.70;99.90;;;;;;5052129;28;20217;-68
2024/01/02 01:08:28;;;;;;;0.75;0.40;;;10.70;99.90;;;;;;5057439;28;20184;-69
2024/01/02 01:10:56;;;;;;;0.63;0.30;;;10.70;99.90;;;;;;5056871;28;20172;-70
2024/01/02 01:13:22;;;;;;;0.45;0.30;;;10.70;99.90;;;;;;5034617;28;20198;-69
2024/01/02 01:15:47;;;;;;;0.68;0.30;;;10.80;99.90;;;;;;5020144;28;20189;-71
2024/01/02 01:18:15;;;;;;;1.52;0.30;;;10.70;99.90;;;;;;5351019;22;20224;-71
2024/01/02 01:20:41;;;;;;;0.38;0.30;;;10.70;99.90;;;;;;5057191;28;20207;-71
2024/01/02 01:23:09;;;;;;;1.20;0.30;;;10.70;99.90;;;;;;5060301;28;20180;-70
2024/01/02 01:25:34;;;;;;;0.30;0.30;;;10.70;99.90;;;;;;5061151;28;20198;-70
2024/01/02 01:28:03;;;;;;;0.70;0.30;;;10.70;99.90;;;;;;5062932;28;20177;-68
2024/01/02 01:30:29;;;;;;;0.88;0.40;;;10.80;99.90;;;;;;5060152;28;20184;-71
2024/01/02 01:32:54;;;;;;;0.70;0.35;;;10.70;99.90;;;;;;5061103;28;20211;-67
2024/01/02 01:35:20;;;;;;;0.20;0.20;;;10.80;99.90;;;;;;5058368;28;20179;-70
2024/01/02 01:37:45;;;;;;;1.42;0.30;;;10.70;99.90;;;;;;5058951;28;20287;-70
2024/01/02 01:40:13;;;;;;;0.70;0.30;;;10.80;99.90;;;;;;5058365;28;20173;-71
2024/01/02 01:42:39;;;;;;;0.43;0.20;;;10.70;99.90;;;;;;5058758;28;20255;-71
2024/01/02 01:45:05;;;;;;;0.40;0.20;;;10.70;99.90;;;;;;5058662;28;20359;-70
2024/01/02 01:47:35;;;;;;;1.05;0.40;;;10.60;99.90;;;;;;5063288;28;20183;-70
2024/01/02 01:50:01;;;;;;;0.22;0.17;;;10.60;99.90;;;;;;5046632;28;20187;-71
2024/01/02 01:52:32;;;;;;;0.38;0.28;;;10.50;99.90;;;;;;5058582;28;20200;-67
2024/01/02 01:54:58;;;;;;;0.28;0.20;;;10.50;99.90;;;;;;5054637;28;20188;-72
2024/01/02 01:57:24;;;;;;;0.25;0.20;;;10.50;99.90;;;;;;5053885;28;20200;-71
2024/01/02 01:59:50;;;;;;;0.50;0.30;;;10.50;99.90;;;;;;5054876;28;20193;-68
2024/01/02 02:02:15;;;;;;;0.30;0.30;;;10.40;99.90;;;;;;5063875;28;20184;-70
2024/01/02 02:04:51;;;;;;;0.30;0.20;;;10.30;99.90;;;;;;5056311;28;20173;-70
2024/01/02 02:07:19;;;;;;;0.95;0.35;;;10.30;99.90;;;;;;5060379;28;20200;-67
2024/01/02 02:09:45;;;;;;;1.95;0.40;;;10.30;99.90;;;;;;5054068;28;20200;-71
2024/01/02 02:12:13;;;;;;;0.75;0.40;;;10.20;99.90;;;;;;5059010;28;20228;-67
2024/01/02 02:14:39;;;;;;;0.68;0.65;;;10.20;99.90;;;;;;5052642;28;20210;-66
2024/01/02 02:17:05;;;;;;;1.15;0.30;;;10.10;99.90;;;;;;5054988;28;20208;-69
2024/01/02 02:19:32;;;;;;;0.30;0.20;;;10.10;99.90;;;;;;5056476;28;20168;-70
2024/01/02 02:22:00;;;;;;;0.25;0.20;;;10.10;99.90;;;;;;5060364;28;20260;-65
2024/01/02 02:24:28;;;;;;;0.90;0.17;;;10.00;99.90;;;;;;5054067;28;20185;-68
2024/01/02 02:26:56;;;;;;;1.05;0.40;;;10.00;99.90;;;;;;5058386;28;20210;-70
2024/01/02 02:29:22;;;;;;;0.40;0.20;;;9.90;99.90;;;;;;5052487;28;20292;-70
2024/01/02 02:31:52;;;;;;;0.40;0.20;;;10.00;99.90;;;;;;5055331;28;20351;-69
2024/01/02 02:34:18;;;;;;;0.30;0.20;;;9.90;99.90;;;;;;5049012;28;20173;-67
2024/01/02 02:36:43;;;;;;;0.10;0.10;;;9.80;99.90;;;;;;5049831;28;20201;-70
2024/01/02 02:39:11;;;;;;;0.40;0.20;;;9.80;99.90;;;;;;5054846;28;20205;-67
2024/01/02 02:41:37;;;;;;;0.40;0.25;;;9.80;99.90;;;;;;5058235;28;20188;-70
2024/01/02 02:44:02;;;;;;;0.28;0.20;;;9.70;99.90;;;;;;5055329;28;20254;-67
2024/01/02 02:46:30;;;;;;;0.40;0.15;;;9.70;99.90;;;;;;5055139;28;20181;-66
2024/01/02 02:48:55;;;;;;;0.25;0.20;;;9.70;99.90;;;;;;5058309;28;20169;-70
2024/01/02 02:51:28;;;;;;;0.10;0.10;;;9.60;99.90;;;;;;5057287;28;20177;-69
2024/01/02 02:53:54;;;;;;;0.40;0.20;;;9.70;99.90;;;;;;5058113;28;20281;-66
2024/01/02 02:56:19;;;;;;;0.43;0.20;;;9.60;99.90;;;;;;5070660;28;20200;-68
2024/01/02 02:58:47;;;;;;;0.50;0.10;;;9.60;99.90;;;;;;5054911;28;20183;-69
2024/01/02 03:01:23;;;;;;;0.13;0.13;;;9.60;99.90;;;;;;5056387;28;20267;-70
2024/01/02 03:03:49;;;;;;;0.20;0.20;;;9.60;99.90;;;;;;5052532;28;20179;-67
2024/01/02 03:06:17;;;;;;;0.20;0.17;;;9.70;99.90;;;;;;5054864;28;20191;-70
2024/01/02 03:08:43;;;;;;;0.30;0.20;;;9.60;99.90;;;;;;5070248;28;20433;-69
2024/01/02 03:11:11;;;;;;;0.30;0.20;;;9.60;99.90;;;;;;5055330;28;20230;-65
2024/01/02 03:13:41;;;;;;;0.20;0.20;;;9.60;99.90;;;;;;5053175;28;20225;-69
2024/01/02 03:16:10;;;;;;;0.10;0.10;;;9.50;99.90;;;;;;5058445;28;20305;-70
2024/01/02 03:18:41;;;;;;;0.17;0.10;;;9.60;99.90;;;;;;5050923;28;20199;-70
2024/01/02 03:21:10;;;;;;;0.20;0.10;;;9.60;99.90;;;;;;5049657;28;20248;-71
2024/01/02 03:23:35;;;;;;;0.22;0.13;;;9.60;99.90;;;;;;5057724;28;20202;-69
2024/01/02 03:26:01;;;;;;;0.15;0.10;;;9.60;99.90;;;;;;5058132;28;20189;-71
2024/01/02 03:28:26;;;;;;;0.65;0.20;;;9.60;99.90;;;;;;5055310;28;20188;-70
2024/01/02 03:30:55;;;;;;;0.10;0.10;;;9.50;99.90;;;;;;5056617;28;20200;-70
2024/01/02 03:33:23;;;;;;;0.15;0.10;;;9.60;99.90;;;;;;5059493;28;20271;-69
2024/01/02 03:35:51;;;;;;;0.88;0.20;;;9.60;99.90;;;;;;5044148;28;20200;-71
2024/01/02 03:38:17;;;;;;;0.10;0.10;;;9.60;99.90;;;;;;5052757;28;20176;-69
2024/01/02 03:40:43;;;;;;;0.10;0.10;;;9.60;99.90;;;;;;5058009;28;20245;-70
2024/01/02 03:43:08;;;;;;;0.30;0.20;;;9.50;99.90;;;;;;5060422;28;20203;-70
2024/01/02 03:45:34;;;;;;;0.25;0.15;;;9.50;99.90;;;;;;5058890;28;20212;-69
2024/01/02 03:48:00;;;;;;;0.13;0.10;;;9.50;99.90;;;;;;5056126;28;20197;-71
2024/01/02 03:50:26;;;;;;;0.17;0.10;;;9.50;99.90;;;;;;5057715;28;20184;-72
2024/01/02 03:52:52;;;;;;;0.10;0.10;;;9.50;99.90;;;;;;5073626;28;20183;-68
2024/01/02 03:55:17;;;;;;;0.22;0.13;;;9.60;99.90;;;;;;5052085;28;20177;-69
2024/01/02 03:57:43;;;;;;;0.68;0.15;;;9.50;99.90;;;;;;5055863;28;20226;-70
2024/01/02 04:00:09;;;;;;;0.22;0.20;;;9.50;99.90;;;;;;5063162;28;20196;-67
2024/01/02 04:02:37;;;;;;;0.22;0.20;;;9.50;99.90;;;;;;5060033;28;20169;-68
2024/01/02 04:05:03;;;;;;;0.30;0.10;;;9.60;99.90;;;;;;5059368;28;20172;-68
2024/01/02 04:07:31;;;;;;;0.20;0.20;;;9.50;99.90;;;;;;5059708;28;20195;-70
2024/01/02 04:09:57;;;;;;;0.63;0.30;;;9.50;99.90;;;;;;5082046;28;20185;-65
2024/01/02 04:12:22;;;;;;;0.40;0.30;;;9.60;99.90;;;;;;5062226;28;20207;-71
2024/01/02 04:14:50;;;;;;;0.50;0.30;;;9.50;99.90;;;;;;5062973;28;20231;-69
2024/01/02 04:17:16;;;;;;;0.75;0.25;;;9.50;99.90;;;;;;5059255;28;20227;-69
2024/01/02 04:19:44;;;;;;;0.65;0.30;;;9.50;99.90;;;;;;5053751;28;20204;-71
2024/01/02 04:22:09;;;;;;;0.25;0.20;;;9.50;99.90;;;;;;5058054;28;20177;-68
2024/01/02 04:24:37;;;;;;;0.30;0.20;;;9.50;99.90;;;;;;5061019;28;20200;-70
2024/01/02 04:27:03;;;;;;;4.30;0.28;;;9.50;99.90;;;;;;5057159;28;20195;-70
2024/01/02 04:29:29;;;;;;;0.30;0.20;;;9.50;99.90;;;;;;5061757;28;20180;-68
2024/01/02 04:31:54;;;;;;;0.20;0.20;;;9.40;99.90;;;;;;5062205;28;20184;-70
2024/01/02 04:34:22;;;;;;;0.20;0.20;;;9.40;99.90;;;;;;5057290;28;20211;-68
2024/01/02 04:36:47;;;;;;;0.15;0.10;;;9.40;99.90;;;;;;5058844;28;20200;-69
2024/01/02 04:39:13;;;;;;;0.47;0.20;;;9.40;99.90;;;;;;5060406;28;20856;-69
2024/01/02 04:41:39;;;;;;;0.05;0.05;;;9.40;99.90;;;;;;5053168;28;20173;-69
2024/01/02 04:44:07;;;;;;;0.10;0.10;;;9.50;99.90;;;;;;5062453;28;20179;-67
2024/01/02 04:46:38;;;;;;;1.55;0.10;;;9.50;99.90;;;;;;5059504;28;20199;-64
2024/01/02 04:49:03;;;;;;;0.10;0.10;;;9.60;99.90;;;;;;5058725;28;20204;-65
2024/01/02 04:51:29;;;;;;;0.00;0.00;;;9.60;99.90;;;;;;5057396;28;20251;-65
2024/01/02 04:53:55;;;;;;;0.95;0.10;;;9.60;99.90;;;;;;5059470;28;20180;-64
2024/01/02 04:56:20;;;;;;;0.10;0.00;;;9.70;99.90;;;;;;5061226;28;20231;-64
2024/01/02 04:58:46;;;;;;;0.00;0.00;;;9.70;99.90;;;;;;5059691;28;20177;-64
2024/01/02 05:01:11;;;;;;;0.15;0.08;;;9.70;99.90;;;;;;5078193;28;20278;-64
2024/01/02 05:03:37;;;;;;;0.00;0.00;;;9.80;99.90;;;;;;5057763;28;20223;-64
2024/01/02 05:06:03;;;;;;;0.08;0.05;;;9.80;99.90;;;;;;5074573;28;20180;-64
2024/01/02 05:08:31;;;;;;;0.00;0.00;;;9.80;99.90;;;;;;5059180;28;20216;-64
2024/01/02 05:10:56;;;;;;;0.25;0.10;;;9.90;99.90;;;;;;5055853;28;20204;-63
2024/01/02 05:13:22;;;;;;;0.45;0.40;;;9.90;99.90;;;;;;5057112;28;20168;-63
2024/01/02 05:15:47;;;;;;;0.80;0.60;;;9.90;99.90;;;;;;5058665;28;20177;-63
2024/01/02 05:18:18;;;;;;;0.57;0.35;;;10.00;99.90;;;;;;5062128;28;20191;-64
2024/01/02 05:20:47;;;;;;;0.20;0.17;;;10.00;99.90;;;;;;5055777;28;20445;-64
2024/01/02 05:23:13;;;;;;;0.10;0.10;;;10.10;99.90;;;;;;5060215;28;20172;-63
2024/01/02 05:25:39;;;;;;;0.43;0.32;;;10.20;99.90;;;;;;5058677;28;20291;-64
2024/01/02 05:28:04;;;;;;;1.83;0.35;;;10.20;99.90;;;;;;5055637;28;20267;-64
2024/01/02 05:30:30;;;;;;;0.40;0.35;;;10.30;99.90;;;;;;5073722;28;20269;-64
2024/01/02 05:32:58;;;;;;;0.52;0.28;;;10.30;99.90;;;;;;5061402;28;20168;-63
2024/01/02 05:35:23;;;;;;;1.30;0.60;;;10.40;99.90;;;;;;5057308;28;20188;-64
2024/01/02 05:37:51;;;;;;;0.88;0.45;;;10.50;99.90;;;;;;5062107;28;20223;-64
2024/01/02 05:40:17;;;;;;;0.45;0.40;;;10.60;99.90;;;;;;5061437;28;20171;-64
2024/01/02 05:42:43;;;;;;;5.43;0.93;;;10.60;99.90;;;;;;5061327;28;20794;-63
2024/01/02 05:45:11;;;;;;;0.90;0.70;;;10.80;99.90;;;;;;5059813;28;20486;-63
2024/01/02 05:47:37;;;;;;;0.40;0.22;;;10.80;99.90;;;;;;5061876;28;20173;-63
2024/01/02 05:50:06;;;;;;;0.40;0.20;;;10.90;99.90;;;;;;5056359;28;20281;-62
2024/01/02 05:52:31;;;;;;;0.10;0.10;;;10.90;99.90;;;;;;5057647;28;20259;-63
2024/01/02 05:55:02;;;;;;;0.22;0.17;;;11.10;99.90;;;;;;5058097;28;20276;-62
2024/01/02 05:57:27;;;;;;;0.20;0.10;;;11.10;99.90;;;;;;5046375;28;20273;-62
2024/01/02 05:59:53;;;;;;;1.02;0.10;;;11.20;99.90;;;;;;5064733;28;20189;-63
2024/01/02 06:02:19;;;;;;;1.10;0.43;;;11.20;99.90;;;;;;5043384;28;20244;-64
2024/01/02 06:04:44;;;;;;;0.88;0.55;;;11.30;99.90;;;;;;5057730;28;20201;-63
2024/01/02 06:07:10;;;;;;;0.15;0.10;;;11.40;99.90;;;;;;5058500;28;20177;-63
2024/01/02 06:09:37;;;;;;;0.00;0.00;;;11.50;99.90;;;;;;5057890;28;20184;-63
2024/01/02 06:12:03;;;;;;;0.40;0.00;;;11.50;99.90;;;;;;5057210;28;20184;-63
2024/01/02 06:14:29;;;;;;;0.20;0.20;;;11.60;99.90;;;;;;5058154;28;20177;-63
2024/01/02 06:16:54;;;;;;;0.03;0.00;;;11.70;99.90;;;;;;5056538;28;20520;-63
2024/01/02 06:19:22;;;;;;;0.93;0.70;;;11.80;99.90;;;;;;5067521;28;20177;-63
2024/01/02 06:21:48;;;;;;;0.20;0.20;;;11.90;99.90;;;;;;5045090;28;20226;-64
2024/01/02 06:24:13;;;;;;;0.28;0.10;;;11.90;99.90;;;;;;5056215;28;20165;-62
2024/01/02 06:26:40;;;;;;;1.15;0.20;;;12.00;99.90;;;;;;5055448;28;20200;-63
2024/01/02 06:29:06;;;;;;;0.10;0.10;;;12.10;99.90;;;;;;5057962;28;20274;-62
2024/01/02 06:31:31;;;;;;;0.10;0.10;;;12.20;99.90;;;;;;5056551;28;20200;-63
2024/01/02 06:33:57;;;;;;;0.00;0.00;;;12.20;99.90;;;;;;5057347;28;20172;-63
2024/01/02 06:36:23;;;;;;;0.10;0.10;;;12.30;99.90;;;;;;5055545;28;20342;-63
2024/01/02 06:38:49;;;;;;;0.10;0.10;;;12.30;99.90;;;;;;5058201;28;20169;-64
2024/01/02 06:41:14;;;;;;;0.15;0.13;;;12.40;99.90;;;;;;5056184;28;20241;-63
2024/01/02 06:43:41;;;;;;;0.00;0.00;;;12.40;99.90;;;;;;5059594;28;20207;-63
2024/01/02 06:46:06;;;;;;;0.10;0.10;;;12.50;99.90;;;;;;5055312;28;20184;-63
2024/01/02 06:48:32;;;;;;;0.00;0.00;;;12.50;99.90;;;;;;5056069;28;20350;-63
2024/01/02 06:50:58;;;;;;;0.30;0.00;;;12.60;99.90;;;;;;5056455;28;20190;-63
2024/01/02 06:53:24;;;;;;;0.00;0.00;;;12.60;99.90;;;;;;5056143;28;20205;-63
2024/01/02 06:55:49;;;;;;;0.10;0.10;;;12.60;99.90;;;;;;5071343;28;20196;-63
2024/01/02 06:58:15;;;;;;;0.08;0.08;;;12.70;99.90;;;;;;5069492;28;20200;-63
2024/01/02 07:00:40;;;;;;;0.00;0.00;;;12.80;99.90;;;;;;5058161;28;20214;-63
2024/01/02 07:03:09;;;;;;;1.25;0.10;;;12.70;99.90;;;;;;5054313;28;20205;-63
2024/01/02 07:05:38;;;;;;;0.10;0.10;;;12.90;99.90;;;;;;5057880;28;20176;-63
2024/01/02 07:08:03;;;;;;;0.00;0.00;;;12.90;99.90;;;;;;5054703;28;20177;-63
2024/01/02 07:10:29;;;;;;;0.10;0.10;;;12.90;99.90;;;;;;5056090;28;20179;-63
2024/01/02 07:12:55;;;;;;;0.00;0.00;;;12.90;99.90;;;;;;5056277;28;20264;-63
2024/01/02 07:15:21;;;;;;;0.10;0.10;;;12.90;99.90;;;;;;5052923;28;20320;-63
2024/01/02 07:17:46;;;;;;;0.10;0.08;;;13.00;99.90;;;;;;5052864;28;20758;-64
2024/01/02 07:20:13;;;;;;;0.10;0.00;;;13.00;99.90;;;;;;5055906;28;20168;-62
2024/01/02 07:22:39;;;;;;;0.00;0.00;;;13.00;99.90;;;;;;5058522;28;20195;-64
2024/01/02 07:25:07;;;;;;;0.10;0.10;;;13.00;99.90;;;;;;5055143;28;20270;-63
2024/01/02 07:27:37;;;;;;;0.00;0.00;;;13.10;99.90;;;;;;5059027;28;20190;-63
2024/01/02 07:30:06;;;;;;;0.10;0.10;;;13.10;99.90;;;;;;5055464;28;20181;-64
2024/01/02 07:32:32;;;;;;;0.03;0.03;;;13.10;99.90;;;;;;5056192;28;20199;-63
2024/01/02 07:35:03;;;;;;;0.10;0.10;;;13.20;99.90;;;;;;5056131;28;20177;-64
2024/01/02 07:37:29;;;;;;;0.20;0.20;;;13.20;99.90;;;;;;5060089;28;20208;-64
2024/01/02 07:39:55;;;;;;;0.10;0.10;;;13.20;99.90;;;;;;5055344;28;20271;-63
2024/01/02 07:42:21;;;;;;;0.10;0.10;;;13.20;99.90;;;;;;5056406;28;20222;-63
2024/01/02 07:44:46;;;;;;;0.20;0.20;;;13.20;99.90;;;;;;5059714;28;20183;-64
2024/01/02 07:47:12;;;;;;;0.10;0.10;;;13.30;99.90;;;;;;5058435;28;20192;-64
2024/01/02 07:49:38;;;;;;;0.10;0.05;;;13.30;99.90;;;;;;5055184;28;20173;-63
2024/01/02 07:52:04;;;;;;;0.00;0.00;;;13.30;99.90;;;;;;5057627;28;20242;-63
2024/01/02 07:54:30;;;;;;;0.08;0.08;;;13.30;99.90;;;;;;5055184;28;20181;-64
2024/01/02 07:57:00;;;;;;;0.00;0.00;;;13.30;99.90;;;;;;5040201;28;20206;-64
2024/01/02 07:59:26;;;;;;;0.00;0.00;;;13.30;99.90;;;;;;5044968;28;20181;-63
2024/01/02 08:01:51;;;;;;;0.10;0.10;;;13.40;99.90;;;;;;5055925;28;20184;-63
2024/01/02 08:04:17;;;;;;;0.35;0.10;;;13.30;99.90;;;;;;5056870;28;20317;-64
2024/01/02 08:06:43;;;;;;;0.05;0.05;;;13.40;99.90;;;;;;5046626;28;20212;-64
2024/01/02 08:09:08;;;;;;;0.10;0.10;;;13.40;99.90;;;;;;5046907;28;20200;-63
2024/01/02 08:11:34;;;;;;;0.10;0.05;;;13.50;99.90;;;;;;5045226;28;20177;-64
2024/01/02 08:14:03;;;;;;;0.10;0.10;;;13.40;99.90;;;;;;5052248;28;20307;-64
2024/01/02 08:16:28;;;;;;;0.17;0.17;;;13.50;99.90;;;;;;5053136;28;20185;-63
2024/01/02 08:18:54;;;;;;;0.13;0.13;;;13.50;99.90;;;;;;5056397;28;20264;-64
2024/01/02 08:21:19;;;;;;;0.30;0.10;;;13.50;99.90;;;;;;5056549;28;20191;-64
2024/01/02 08:23:47;;;;;;;0.20;0.20;;;13.50;99.90;;;;;;5047684;28;20177;-64
2024/01/02 08:26:15;;;;;;;0.15;0.10;;;13.60;99.90;;;;;;5056170;28;20183;-64
2024/01/02 08:28:46;;;;;;;0.52;0.20;;;13.60;99.90;;;;;;5052231;28;20177;-63
2024/01/02 08:31:13;;;;;;;0.20;0.10;;;13.60;99.90;;;;;;5061388;28;20187;-64
2024/01/02 08:33:38;;;;;;;0.22;0.20;;;13.60;99.90;;;;;;5080971;28;20204;-63
2024/01/02 08:36:06;;;;;;;0.30;0.30;;;13.60;99.90;;;;;;5061027;28;20200;-63
2024/01/02 08:38:32;;;;;;;0.52;0.43;;;13.60;99.90;;;;;;5061385;28;20224;-64
2024/01/02 08:40:57;;;;;;;0.30;0.20;;;13.60;99.90;;;;;;5056607;28;20228;-64
2024/01/02 08:43:23;;;;;;;0.20;0.20;;;13.60;99.90;;;;;;5054749;28;20231;-64
2024/01/02 08:45:51;;;;;;;0.10;0.10;;;13.60;99.90;;;;;;5059814;28;20267;-64
2024/01/02 08:48:16;;;;;;;0.10;0.10;;;13.70;99.90;;;;;;5047174;28;20173;-64
2024/01/02 08:50:42;;;;;;;0.15;0.00;;;13.70;99.90;;;;;;5058514;28;20179;-63
2024/01/02 08:53:12;;;;;;;0.20;0.20;;;13.70;99.90;;;;;;5059838;28;20181;-63
2024/01/02 08:55:38;;;;;;;0.20;0.10;;;13.70;99.90;;;;;;5059795;28;20172;-64
2024/01/02 08:58:06;;;;;;;0.38;0.10;;;13.70;99.90;;;;;;5065872;28;20208;-63
2024/01/02 09:00:32;;;;;;;0.10;0.10;;;13.70;99.90;;;;;;5060994;28;20346;-64
2024/01/02 09:03:08;;;;;;;0.10;0.10;;;13.70;99.90;;;;;;5057506;28;20203;-64
2024/01/02 09:05:33;;;;;;;0.50;0.30;;;13.70;99.90;;;;;;5065620;28;20188;-64
2024/01/02 09:08:04;;;;;;;0.13;0.13;;;13.70;99.90;;;;;;5072126;28;20176;-65
2024/01/02 09:10:29;;;;;;;0.10;0.05;;;13.80;99.90;;;;;;5059803;28;20176;-66
2024/01/02 09:12:55;;;;;;;0.25;0.10;;;13.70;99.90;;;;;;5047223;28;20235;-66
2024/01/02 09:15:23;;;;;;;0.35;0.30;;;13.70;99.90;;;;;;5042977;28;20199;-65
2024/01/02 09:17:48;;;;;;;0.13;0.13;;;13.80;99.90;;;;;;5056042;28;20263;-64
2024/01/02 09:20:16;;;;;;;0.10;0.10;;;13.80;99.90;;;;;;5058172;28;20198;-65
2024/01/02 09:22:44;;;;;;;0.10;0.10;;;13.80;99.90;;;;;;5071409;28;20169;-64
2024/01/02 09:25:15;;;;;;;0.15;0.15;;;13.80;99.90;;;;;;5052018;28;20180;-65
2024/01/02 09:27:43;;;;;;;0.08;0.08;;;13.80;99.90;;;;;;5055300;28;20185;-64
2024/01/02 09:30:12;;;;;;;0.40;0.20;;;13.90;99.90;;;;;;5060552;28;20204;-65
2024/01/02 09:32:40;;;;;;;0.10;0.10;;;13.80;99.90;;;;;;5057377;28;20306;-65
2024/01/02 09:35:06;;;;;;;0.70;0.52;;;13.90;99.90;;;;;;5061165;28;20181;-64
2024/01/02 09:37:31;;;;;;;0.30;0.28;;;13.90;99.90;;;;;;5040570;28;20204;-65
2024/01/02 09:40:00;;;;;;;0.20;0.20;;;13.90;99.90;;;;;;5070092;28;20176;-65
2024/01/02 09:42:53;;;;;;;0.10;0.10;;;13.90;99.90;;;;;;5058142;28;20294;-64
2024/01/02 09:45:24;;;;;;;0.10;0.00;;;14.00;99.90;;;;;;5067790;28;20212;-64
2024/01/02 09:47:53;;;;;;;0.10;0.10;;;14.00;99.90;;;;;;5045366;28;20450;-64
2024/01/02 09:50:24;;;;;;;0.20;0.15;;;14.00;99.90;;;;;;5054879;28;20266;-64
2024/01/02 09:53:08;;;;;;;0.28;0.20;;;14.00;99.90;;;;;;5070415;28;20465;-64
2024/01/02 09:55:42;;;;;;;0.10;0.10;;;14.00;99.90;;;;;;5067188;28;20181;-64
2024/01/02 09:58:13;;;;;;;0.20;0.10;;;14.00;99.90;;;;;;5052002;28;20211;-63
2024/01/02 10:01:05;;;;;;;0.50;0.20;;;14.00;99.90;;;;;;5058310;28;20263;-64
2024/01/02 10:03:44;;;;;;;0.90;0.55;;;14.00;99.90;;;;;;5072230;28;20169;-64
2024/01/02 10:06:32;;;;;;;0.55;0.40;;;14.10;99.90;;;;;;5052788;28;20181;-64
2024/01/02 10:09:12;;;;;;;0.30;0.25;;;14.10;99.90;;;;;;5009038;28;20181;-64
2024/01/02 10:11:37;;;;;;;0.22;0.10;;;14.10;99.90;;;;;;5060435;28;20196;-63
2024/01/02 10:14:11;;;;;;;0.10;0.10;;;14.10;99.90;;;;;;5038504;28;20173;-63
2024/01/02 10:16:40;;;;;;;0.20;0.15;;;14.10;99.90;;;;;;5043339;28;20204;-63
2024/01/02 10:19:36;;;;;;;0.82;0.20;;;14.10;99.90;;;;;;5058153;28;20177;-63
2024/01/02 10:22:09;;;;;;;0.10;0.10;;;14.10;99.90;;;;;;5026186;28;20180;-63
2024/01/02 10:24:50;;;;;;;0.20;0.20;;;14.10;99.90;;;;;;5055469;28;20285;-64
2024/01/02 10:27:36;;;;;;;0.38;0.30;;;14.10;99.90;;;;;;5067766;28;20187;-63
2024/01/02 10:30:12;;;;;;;0.30;0.10;;;14.10;99.90;;;;;;5074329;28;20205;-64
2024/01/02 10:33:05;;;;;;;0.10;0.10;;;14.00;99.90;;;;;;5059608;28;20173;-64
2024/01/02 10:35:36;;;;;;;0.65;0.40;;;14.00;99.90;;;;;;5037830;28;20161;-64
2024/01/02 10:38:15;;;;;;;0.55;0.30;;;14.00;99.90;;;;;;5046880;28;20197;-64
2024/01/02 10:40:44;;;;;;;0.20;0.20;;;13.90;99.90;;;;;;5067972;28;20165;-63
2024/01/02 10:43:27;;;;;;;0.20;0.20;;;14.00;99.90;;;;;;5055446;28;20197;-64
2024/01/02 10:45:59;;;;;;;0.20;0.20;;;13.90;99.90;;;;;;5064031;28;20204;-64
2024/01/02 10:48:56;;;;;;;0.20;0.15;;;13.90;99.90;;;;;;5053617;28;20189;-63
2024/01/02 10:51:38;;;;;;;0.20;0.20;;;13.80;99.90;;;;;;5050177;28;20263;-64
2024/01/02 10:54:07;;;;;;;0.28;0.22;;;13.80;99.90;;;;;;5041924;28;20180;-63
2024/01/02 10:56:42;;;;;;;0.50;0.30;;;13.80;99.90;;;;;;5049045;28;20208;-64
2024/01/02 10:59:18;;;;;;;0.20;0.20;;;13.70;99.90;;;;;;5054139;28;20169;-64
2024/01/02 11:01:51;;;;;;;0.38;0.30;;;13.60;99.90;;;;;;5057944;28;20192;-65
2024/01/02 11:04:32;;;;;;;0.20;0.20;;;13.50;99.90;;;;;;5055905;28;20183;-64
2024/01/02 11:07:06;;;;;;;1.35;0.68;;;13.40;99.90;;;;;;5074823;28;20211;-63
2024/01/02 11:09:41;;;;;;;0.60;0.30;;;13.30;99.90;;;;;;5069092;28;20251;-65
2024/01/02 11:12:09;;;;;;;0.30;0.22;;;13.10;99.90;;;;;;5057443;28;20207;-63
2024/01/02 11:14:38;;;;;;;1.08;0.38;;;12.90;99.90;;;;;;5065023;28;20176;-63
2024/01/02 11:17:07;;;;;;;0.40;0.30;;;12.80;99.90;;;;;;5059780;28;20273;-63
2024/01/02 11:19:45;;;;;;;0.40;0.30;;;12.70;99.90;;;;;;5047052;28;20201;-63
2024/01/02 11:22:21;;;;;;;0.65;0.40;;;12.60;99.90;;;;;;5037611;28;20212;-63
2024/01/02 11:25:00;;;;;;;0.52;0.40;;;12.60;99.90;;;;;;5061537;28;20192;-64
2024/01/02 11:27:28;;;;;;;0.40;0.38;;;12.60;99.90;;;;;;5056990;28;20247;-64
2024/01/02 11:29:56;;;;;;;0.25;0.20;;;12.50;99.90;;;;;;5057454;28;20190;-63
2024/01/02 11:32:33;;;;;;;0.38;0.30;;;12.50;99.90;;;;;;5070078;28;20211;-64
2024/01/02 11:35:05;;;;;;;1.10;0.50;;;12.50;99.90;;;;;;5065082;28;20267;-62
2024/01/02 11:37:36;;;;;;;0.80;0.75;;;12.40;99.90;;;;;;5050159;28;20351;-64
2024/01/02 11:40:21;;;;;;;1.02;0.60;;;12.40;99.90;;;;;;5043530;28;20174;-64
2024/01/02 11:42:56;;;;;;;1.17;0.70;;;12.40;99.90;;;;;;5039860;28;20170;-64
2024/01/02 11:45:27;;;;;;;0.77;0.60;;;12.40;99.90;;;;;;5066881;28;20200;-64
2024/01/02 11:47:59;;;;;;;1.05;0.95;;;12.40;99.90;;;;;;5039765;28;20197;-64
2024/01/02 11:50:56;;;;;;;0.80;0.68;;;12.50;99.90;;;;;;5063314;28;20187;-64
2024/01/02 11:53:43;;;;;;;0.85;0.60;;;12.40;99.90;;;;;;5033745;28;20204;-64
2024/01/02 11:56:12;;;;;;;0.65;0.57;;;12.50;99.90;;;;;;5055662;28;20214;-64
2024/01/02 11:58:50;;;;;;;0.47;0.40;;;12.50;99.90;;;;;;5056924;28;20204;-63
2024/01/02 12:01:24;;;;;;;2.03;0.40;;;12.50;99.90;;;;;;5051265;28;20464;-64
2024/01/02 12:03:55;;;;;;;0.73;0.22;;;12.50;99.90;;;;;;5059041;28;20157;-64
2024/01/02 12:06:48;;;;;;;0.65;0.30;;;12.50;99.90;;;;;;5066824;28;20263;-62
2024/01/02 12:09:18;;;;;;;1.92;0.30;;;12.50;99.90;;;;;;5065011;28;20235;-63
2024/01/02 12:11:56;;;;;;;0.50;0.20;;;12.50;99.90;;;;;;5070768;28;20203;-63
2024/01/02 12:14:53;;;;;;;0.52;0.20;;;12.50;99.90;;;;;;5059923;28;20182;-64
2024/01/02 12:17:28;;;;;;;0.20;0.20;;;12.50;99.90;;;;;;5040523;28;20209;-64
2024/01/02 12:20:05;;;;;;;0.50;0.30;;;12.40;99.90;;;;;;5056910;28;20267;-64
2024/01/02 12:22:38;;;;;;;0.45;0.40;;;12.40;99.90;;;;;;5076397;28;20165;-64
2024/01/02 12:25:10;;;;;;;0.28;0.20;;;12.40;99.90;;;;;;5059642;28;20196;-63
2024/01/02 12:27:37;;;;;;;0.80;0.20;;;12.30;99.90;;;;;;5060522;28;20177;-64
2024/01/02 12:30:05;;;;;;;0.47;0.32;;;12.30;99.90;;;;;;5059805;28;20177;-63
2024/01/02 12:33:00;;;;;;;0.82;0.60;;;12.30;99.90;;;;;;5069148;28;20172;-64
2024/01/02 12:35:31;;;;;;;1.17;0.40;;;12.20;99.90;;;;;;5077908;28;20161;-63
2024/01/02 12:38:03;;;;;;;0.30;0.30;;;12.20;99.90;;;;;;5056496;28;20295;-64
2024/01/02 12:40:32;;;;;;;0.30;0.20;;;12.20;99.90;;;;;;5059305;28;20169;-63
2024/01/02 12:42:59;;;;;;;0.30;0.20;;;12.20;99.90;;;;;;5062046;28;20195;-64
2024/01/02 12:45:32;;;;;;;1.83;0.20;;;12.10;99.90;;;;;;5068204;28;20168;-64
2024/01/02 12:48:05;;;;;;;0.13;0.13;;;12.10;99.90;;;;;;5060308;28;20175;-64
2024/01/02 12:50:34;;;;;;;0.20;0.20;;;12.10;99.90;;;;;;5057832;28;20203;-64
2024/01/02 12:53:08;;;;;;;0.60;0.30;;;12.10;99.90;;;;;;5060193;28;20286;-65
2024/01/02 12:55:51;;;;;;;0.63;0.43;;;12.00;99.90;;;;;;5057162;28;20201;-69